createdAt,value
2022-09-03T00:01:32.216Z,18.00
2022-09-03T00:04:02.532Z,17.90
2022-09-03T00:06:40.076Z,17.70
2022-09-03T00:09:16.041Z,17.50
2022-09-03T00:12:00.532Z,17.40
2022-09-03T00:14:34.027Z,17.30
2022-09-03T00:17:16.411Z,17.20
2022-09-03T00:20:27.009Z,17.30
2022-09-03T00:22:55.635Z,17.20
2022-09-03T00:25:39.950Z,17.10
2022-09-03T00:28:18.894Z,17.20
2022-09-03T00:30:47.195Z,17.30
2022-09-03T00:33:19.272Z,17.40
2022-09-03T00:36:02.299Z,17.50
2022-09-03T00:38:30.378Z,17.60
2022-09-03T00:41:31.602Z,17.60
2022-09-03T00:44:19.916Z,17.60
2022-09-03T00:47:01.860Z,17.40
2022-09-03T00:49:33.206Z,17.10
2022-09-03T00:52:12.683Z,17.00
2022-09-03T00:55:01.682Z,17.00
2022-09-03T00:58:00.856Z,17.00
2022-09-03T01:00:28.050Z,16.80
2022-09-03T01:03:24.186Z,16.70
2022-09-03T01:06:22.286Z,16.70
2022-09-03T01:08:57.224Z,16.80
2022-09-03T01:11:47.489Z,17.00
2022-09-03T01:14:27.974Z,17.20
2022-09-03T01:17:04.157Z,17.30
2022-09-03T01:19:43.482Z,17.40
2022-09-03T01:22:38.488Z,17.20
2022-09-03T01:25:35.545Z,17.10
2022-09-03T01:28:27.841Z,17.00
2022-09-03T01:31:18.765Z,16.80
2022-09-03T01:34:10.089Z,16.90
2022-09-03T01:36:37.136Z,16.90
2022-09-03T01:39:06.523Z,16.90
2022-09-03T01:42:20.403Z,16.80
2022-09-03T01:45:17.437Z,16.80
2022-09-03T01:48:32.331Z,17.00
2022-09-03T01:51:11.052Z,17.20
2022-09-03T01:54:03.481Z,17.30
2022-09-03T01:57:07.300Z,17.20
2022-09-03T02:00:03.848Z,17.10
2022-09-03T02:02:39.264Z,17.20
2022-09-03T02:05:14.626Z,17.20
2022-09-03T02:07:49.538Z,17.20
2022-09-03T02:10:19.380Z,17.20
2022-09-03T02:12:52.720Z,17.20
2022-09-03T02:15:21.764Z,17.30
2022-09-03T02:17:50.257Z,17.30
2022-09-03T02:20:22.162Z,17.30
2022-09-03T02:22:49.048Z,17.30
2022-09-03T02:25:17.003Z,17.20
2022-09-03T02:27:44.463Z,17.30
2022-09-03T02:30:12.140Z,17.30
2022-09-03T02:32:39.141Z,17.20
2022-09-03T02:35:07.044Z,17.20
2022-09-03T02:37:35.007Z,17.10
2022-09-03T02:40:05.291Z,17.00
2022-09-03T02:42:32.601Z,17.00
2022-09-03T02:45:03.632Z,17.00
2022-09-03T02:47:32.317Z,17.00
2022-09-03T02:49:59.232Z,17.10
2022-09-03T02:52:26.303Z,17.10
2022-09-03T02:54:53.205Z,17.20
2022-09-03T02:57:27.392Z,16.90
2022-09-03T02:59:54.882Z,16.80
2022-09-03T03:02:21.953Z,16.70
2022-09-03T03:04:49.090Z,16.80
2022-09-03T03:07:16.012Z,16.80
2022-09-03T03:09:42.974Z,16.90
2022-09-03T03:12:10.415Z,16.90
2022-09-03T03:14:37.453Z,17.00
2022-09-03T03:17:05.316Z,17.10
2022-09-03T03:19:32.636Z,17.20
2022-09-03T03:21:59.851Z,17.30
2022-09-03T03:24:27.162Z,17.30
2022-09-03T03:27:00.086Z,17.20
2022-09-03T03:29:27.493Z,17.30
2022-09-03T03:31:54.867Z,17.40
2022-09-03T03:34:22.037Z,17.50
2022-09-03T03:36:48.965Z,17.50
2022-09-03T03:39:15.869Z,17.60
2022-09-03T03:41:42.908Z,17.60
2022-09-03T03:44:09.880Z,17.60
2022-09-03T03:46:40.863Z,17.60
2022-09-03T03:49:08.436Z,17.60
2022-09-03T03:51:36.230Z,17.70
2022-09-03T03:54:05.505Z,17.60
2022-09-03T03:56:32.909Z,17.60
2022-09-03T03:59:00.931Z,17.70
2022-09-03T04:01:28.151Z,17.70
2022-09-03T04:03:55.678Z,17.60
2022-09-03T04:06:24.233Z,17.60
2022-09-03T04:08:51.275Z,17.60
2022-09-03T04:11:22.383Z,17.60
2022-09-03T04:13:52.929Z,17.50
2022-09-03T04:16:24.794Z,17.50
2022-09-03T04:18:54.521Z,17.40
2022-09-03T04:21:23.863Z,17.40
2022-09-03T04:23:52.543Z,17.40
2022-09-03T04:26:21.614Z,17.50
2022-09-03T04:28:48.984Z,17.60
2022-09-03T04:31:20.601Z,17.40
2022-09-03T04:33:47.786Z,17.40
2022-09-03T04:36:20.419Z,17.50
2022-09-03T04:38:48.656Z,17.50
2022-09-03T04:41:19.872Z,17.60
2022-09-03T04:43:51.586Z,17.60
2022-09-03T04:46:18.836Z,17.60
2022-09-03T04:48:48.824Z,17.50
2022-09-03T04:51:17.555Z,17.50
2022-09-03T04:53:46.513Z,17.50
2022-09-03T04:56:21.248Z,17.40
2022-09-03T04:58:50.103Z,17.30
2022-09-03T05:01:20.265Z,17.30
2022-09-03T05:03:47.794Z,17.20
2022-09-03T05:06:17.301Z,17.10
2022-09-03T05:08:49.079Z,17.10
2022-09-03T05:11:17.516Z,17.20
2022-09-03T05:13:47.293Z,17.20
2022-09-03T05:16:14.346Z,17.10
2022-09-03T05:18:42.452Z,17.10
2022-09-03T05:21:10.900Z,17.00
2022-09-03T05:23:42.780Z,17.00
2022-09-03T05:26:11.541Z,16.80
2022-09-03T05:28:39.859Z,16.70
2022-09-03T05:31:08.875Z,16.70
2022-09-03T05:33:50.037Z,16.70
2022-09-03T05:36:18.956Z,16.80
2022-09-03T05:38:46.130Z,17.00
2022-09-03T05:41:14.674Z,17.00
2022-09-03T05:43:41.630Z,17.00
2022-09-03T05:46:10.251Z,17.10
2022-09-03T05:48:37.851Z,17.00
2022-09-03T05:51:10.053Z,16.80
2022-09-03T05:53:38.412Z,16.90
2022-09-03T05:56:07.345Z,17.00
2022-09-03T05:58:35.255Z,17.10
2022-09-03T06:01:18.369Z,17.20
2022-09-03T06:03:46.118Z,17.30
2022-09-03T06:06:16.347Z,17.40
2022-09-03T06:08:44.988Z,17.30
2022-09-03T06:11:12.685Z,17.40
2022-09-03T06:13:39.959Z,17.40
2022-09-03T06:16:07.468Z,17.40
2022-09-03T06:18:34.589Z,17.50
2022-09-03T06:21:03.857Z,17.40
2022-09-03T06:23:31.033Z,17.50
2022-09-03T06:26:11.064Z,17.60
2022-09-03T06:28:39.796Z,17.80
2022-09-03T06:31:07.994Z,18.30
2022-09-03T06:33:36.191Z,18.70
2022-09-03T06:36:08.535Z,19.20
2022-09-03T06:38:37.733Z,19.50
2022-09-03T06:41:09.201Z,19.80
2022-09-03T06:43:36.782Z,20.10
2022-09-03T06:46:08.293Z,20.20
2022-09-03T06:48:35.600Z,20.40
2022-09-03T06:51:10.785Z,20.70
2022-09-03T06:53:42.560Z,21.10
2022-09-03T06:56:11.176Z,21.40
2022-09-03T06:58:40.636Z,21.70
2022-09-03T07:01:09.890Z,21.70
2022-09-03T07:03:37.754Z,21.80
2022-09-03T07:06:09.098Z,21.70
2022-09-03T07:08:36.435Z,21.90
2022-09-03T07:11:09.342Z,22.20
2022-09-03T07:13:43.607Z,22.50
2022-09-03T07:16:12.249Z,22.70
2022-09-03T07:18:40.211Z,22.80
2022-09-03T07:21:09.185Z,23.00
2022-09-03T07:23:36.917Z,23.30
2022-09-03T07:26:09.054Z,23.60
2022-09-03T07:28:37.525Z,23.70
2022-09-03T07:31:12.296Z,24.00
2022-09-03T07:33:40.086Z,24.10
2022-09-03T07:36:09.059Z,24.10
2022-09-03T07:38:36.335Z,24.20
2022-09-03T07:41:05.308Z,24.30
2022-09-03T07:43:37.220Z,24.40
2022-09-03T07:46:04.116Z,24.60
2022-09-03T07:48:36.675Z,24.60
2022-09-03T07:51:07.729Z,24.80
2022-09-03T07:53:35.420Z,24.90
2022-09-03T07:56:07.121Z,25.10
2022-09-03T07:58:35.099Z,25.00
2022-09-03T08:01:08.973Z,25.00
2022-09-03T08:03:39.101Z,25.10
2022-09-03T08:06:07.490Z,24.90
2022-09-03T08:08:37.909Z,24.70
2022-09-03T08:11:13.242Z,24.30
2022-09-03T08:13:46.375Z,24.20
2022-09-03T08:16:14.053Z,24.20
2022-09-03T08:18:42.230Z,24.40
2022-09-03T08:21:15.839Z,24.40
2022-09-03T08:23:47.737Z,24.60
2022-09-03T08:26:15.585Z,24.60
2022-09-03T08:28:44.002Z,24.60
2022-09-03T08:31:19.773Z,24.40
2022-09-03T08:33:51.617Z,24.70
2022-09-03T08:36:22.938Z,24.90
2022-09-03T08:38:55.496Z,25.20
2022-09-03T08:41:44.701Z,25.50
2022-09-03T08:44:33.776Z,25.60
2022-09-03T08:47:14.702Z,25.90
2022-09-03T08:50:02.644Z,25.20
2022-09-03T08:52:59.758Z,25.10
2022-09-03T08:56:07.994Z,25.30
2022-09-03T08:58:45.116Z,25.30
2022-09-03T09:01:39.949Z,25.30
2022-09-03T09:04:24.608Z,25.20
2022-09-03T09:07:10.849Z,25.30
2022-09-03T09:10:09.986Z,25.30
2022-09-03T09:12:52.114Z,25.40
2022-09-03T09:15:48.197Z,25.60
2022-09-03T09:18:24.456Z,25.90
2022-09-03T09:20:56.629Z,25.80
2022-09-03T09:23:47.409Z,25.70
2022-09-03T09:26:18.921Z,25.70
2022-09-03T09:28:47.884Z,25.90
2022-09-03T09:31:19.362Z,25.70
2022-09-03T09:33:46.824Z,25.70
2022-09-03T09:36:16.528Z,25.50
2022-09-03T09:38:43.981Z,25.50
2022-09-03T09:41:15.593Z,25.40
2022-09-03T09:43:44.275Z,25.50
2022-09-03T09:46:16.112Z,25.40
2022-09-03T09:48:53.805Z,24.90
2022-09-03T09:51:31.510Z,24.40
2022-09-03T09:54:19.153Z,24.00
2022-09-03T09:56:47.090Z,24.30
2022-09-03T09:59:15.377Z,24.60
2022-09-03T10:01:47.037Z,24.90
2022-09-03T10:04:33.249Z,25.10
2022-09-03T10:07:24.089Z,25.00
2022-09-03T10:10:00.495Z,25.10
2022-09-03T10:12:42.161Z,25.50
2022-09-03T10:15:21.499Z,26.00
2022-09-03T10:18:00.762Z,26.10
2022-09-03T10:20:51.077Z,26.10
2022-09-03T10:23:28.485Z,26.10
2022-09-03T10:26:07.178Z,26.20
2022-09-03T10:28:41.369Z,26.00
2022-09-03T10:31:50.415Z,25.80
2022-09-03T10:34:34.278Z,25.40
2022-09-03T10:37:21.329Z,24.80
2022-09-03T10:39:52.471Z,24.30
2022-09-03T10:42:22.101Z,24.10
2022-09-03T10:45:16.108Z,24.20
2022-09-03T10:48:04.279Z,24.50
2022-09-03T10:50:57.270Z,24.30
2022-09-03T10:53:55.001Z,24.50
2022-09-03T10:56:51.901Z,24.90
2022-09-03T11:00:10.891Z,25.30
2022-09-03T11:02:46.628Z,25.30
2022-09-03T11:05:22.389Z,25.50
2022-09-03T11:07:58.484Z,25.50
2022-09-03T11:10:31.017Z,25.70
2022-09-03T11:13:27.950Z,25.60
2022-09-03T11:16:14.390Z,25.50
2022-09-03T11:19:04.177Z,25.00
2022-09-03T11:21:31.705Z,25.20
2022-09-03T11:24:07.847Z,25.50
2022-09-03T11:26:35.848Z,25.70
2022-09-03T11:29:26.976Z,25.70
2022-09-03T11:32:11.089Z,25.80
2022-09-03T11:34:49.120Z,25.60
2022-09-03T11:37:16.999Z,25.30
2022-09-03T11:39:44.129Z,25.20
2022-09-03T11:42:12.998Z,25.20
2022-09-03T11:44:51.162Z,25.20
2022-09-03T11:47:23.691Z,25.00
2022-09-03T11:49:54.248Z,25.00
2022-09-03T11:52:28.754Z,25.10
2022-09-03T11:54:59.459Z,25.10
2022-09-03T11:57:31.172Z,25.00
2022-09-03T12:00:13.384Z,25.20
2022-09-03T12:02:48.723Z,25.50
2022-09-03T12:05:21.911Z,25.60
2022-09-03T12:08:08.926Z,25.70
2022-09-03T12:10:53.358Z,25.60
2022-09-03T12:13:41.882Z,25.80
2022-09-03T12:16:18.089Z,25.80
2022-09-03T12:18:45.673Z,25.80
2022-09-03T12:21:12.920Z,25.90
2022-09-03T12:23:45.455Z,25.80
2022-09-03T12:26:15.316Z,25.80
2022-09-03T12:28:44.466Z,25.60
2022-09-03T12:31:23.876Z,25.50
2022-09-03T12:34:01.899Z,25.40
2022-09-03T12:36:42.853Z,25.40
2022-09-03T12:39:17.162Z,25.50
2022-09-03T12:42:06.401Z,25.50
2022-09-03T12:44:39.579Z,25.60
2022-09-03T12:47:40.608Z,25.60
2022-09-03T12:50:25.842Z,25.70
2022-09-03T12:52:59.454Z,25.70
2022-09-03T12:55:42.411Z,25.40
2022-09-03T12:58:14.115Z,25.30
2022-09-03T13:00:45.730Z,25.20
2022-09-03T13:03:18.480Z,25.40
2022-09-03T13:05:48.383Z,25.50
2022-09-03T13:08:23.958Z,25.70
2022-09-03T13:10:55.813Z,25.90
2022-09-03T13:13:26.669Z,25.90
2022-09-03T13:16:09.951Z,25.90
2022-09-03T13:18:52.894Z,25.50
2022-09-03T13:21:35.906Z,25.40
2022-09-03T13:24:26.084Z,25.60
2022-09-03T13:27:22.638Z,25.70
2022-09-03T13:29:57.381Z,25.90
2022-09-03T13:32:40.019Z,25.80
2022-09-03T13:35:07.144Z,25.90
2022-09-03T13:37:36.004Z,25.70
2022-09-03T13:40:17.229Z,25.70
2022-09-03T13:43:02.825Z,25.70
2022-09-03T13:45:41.604Z,25.70
2022-09-03T13:48:39.819Z,25.70
2022-09-03T13:51:51.028Z,25.40
2022-09-03T13:54:48.139Z,25.40
2022-09-03T13:57:38.278Z,25.50
2022-09-03T14:00:10.756Z,25.70
2022-09-03T14:02:46.821Z,25.60
2022-09-03T14:05:19.865Z,25.40
2022-09-03T14:08:07.747Z,25.40
2022-09-03T14:10:36.469Z,25.30
2022-09-03T14:13:29.832Z,25.10
2022-09-03T14:16:22.523Z,25.10
2022-09-03T14:19:00.684Z,25.10
2022-09-03T14:21:42.464Z,25.20
2022-09-03T14:24:36.259Z,25.10
2022-09-03T14:27:03.397Z,25.10
2022-09-03T14:29:32.296Z,25.10
2022-09-03T14:32:27.931Z,25.10
2022-09-03T14:35:17.264Z,25.10
2022-09-03T14:38:00.650Z,25.10
2022-09-03T14:40:35.925Z,24.80
2022-09-03T14:43:19.650Z,24.70
2022-09-03T14:46:05.694Z,24.70
2022-09-03T14:48:58.694Z,24.60
2022-09-03T14:51:43.689Z,24.40
2022-09-03T14:54:26.126Z,24.50
2022-09-03T14:57:12.252Z,24.60
2022-09-03T15:00:05.517Z,24.70
2022-09-03T15:02:41.535Z,24.70
2022-09-03T15:05:27.994Z,24.70
2022-09-03T15:08:16.366Z,24.70
2022-09-03T15:10:47.102Z,24.50
2022-09-03T15:13:22.126Z,24.50
2022-09-03T15:16:09.164Z,24.50
2022-09-03T15:19:11.224Z,24.50
2022-09-03T15:21:54.825Z,24.40
2022-09-03T15:24:47.893Z,24.50
2022-09-03T15:27:24.233Z,24.40
2022-09-03T15:30:08.245Z,24.20
2022-09-03T15:32:38.749Z,24.10
2022-09-03T15:35:09.805Z,24.10
2022-09-03T15:37:36.931Z,24.00
2022-09-03T15:40:25.064Z,24.10
2022-09-03T15:42:55.794Z,24.10
2022-09-03T15:45:48.461Z,24.10
2022-09-03T15:48:46.823Z,24.20
2022-09-03T15:51:28.512Z,24.30
2022-09-03T15:53:58.911Z,24.20
2022-09-03T15:56:39.572Z,24.30
2022-09-03T15:59:13.166Z,24.10
2022-09-03T16:01:58.480Z,24.10
2022-09-03T16:04:43.041Z,24.10
2022-09-03T16:07:34.692Z,24.10
2022-09-03T16:10:25.349Z,24.00
2022-09-03T16:13:21.394Z,23.90
2022-09-03T16:16:03.622Z,23.70
2022-09-03T16:18:56.162Z,23.50
2022-09-03T16:21:40.097Z,23.50
2022-09-03T16:24:20.499Z,23.30
2022-09-03T16:26:52.253Z,23.40
2022-09-03T16:29:19.494Z,23.40
2022-09-03T16:32:27.142Z,23.40
2022-09-03T16:35:12.793Z,23.40
2022-09-03T16:37:56.478Z,23.40
2022-09-03T16:40:32.604Z,23.40
2022-09-03T16:43:29.986Z,23.30
2022-09-03T16:46:01.777Z,23.10
2022-09-03T16:48:36.958Z,23.10
2022-09-03T16:51:41.339Z,23.00
2022-09-03T16:54:32.441Z,23.00
2022-09-03T16:57:31.335Z,23.10
2022-09-03T17:00:12.193Z,23.10
2022-09-03T17:02:51.417Z,23.00
2022-09-03T17:05:49.272Z,22.90
2022-09-03T17:08:27.965Z,22.60
2022-09-03T17:11:32.548Z,22.50
2022-09-03T17:14:34.566Z,22.50
2022-09-03T17:17:24.851Z,22.40
2022-09-03T17:20:19.435Z,22.20
2022-09-03T17:23:24.964Z,22.20
2022-09-03T17:26:13.534Z,22.20
2022-09-03T17:28:46.701Z,22.30
2022-09-03T17:31:48.371Z,22.20
2022-09-03T17:34:20.180Z,22.10
2022-09-03T17:37:05.325Z,22.00
2022-09-03T17:39:53.958Z,22.00
2022-09-03T17:42:28.999Z,22.00
2022-09-03T17:45:24.996Z,21.90
2022-09-03T17:48:15.835Z,21.80
2022-09-03T17:50:56.365Z,21.80
2022-09-03T17:53:48.028Z,21.70
2022-09-03T17:56:23.368Z,21.60
2022-09-03T17:59:11.281Z,21.60
2022-09-03T18:01:41.144Z,21.60
2022-09-03T18:04:47.790Z,21.60
2022-09-03T18:07:25.550Z,21.60
2022-09-03T18:10:09.942Z,21.50
2022-09-03T18:13:03.170Z,21.50
2022-09-03T18:15:49.914Z,21.50
2022-09-03T18:18:25.147Z,21.40
2022-09-03T18:21:30.792Z,21.40
2022-09-03T18:24:35.119Z,21.40
2022-09-03T18:27:29.462Z,21.40
2022-09-03T18:30:27.524Z,21.30
2022-09-03T18:33:12.946Z,21.30
2022-09-03T18:36:07.433Z,21.20
2022-09-03T18:39:00.920Z,21.20
2022-09-03T18:42:07.330Z,21.20
2022-09-03T18:45:21.609Z,21.10
2022-09-03T18:48:36.171Z,21.10
2022-09-03T18:51:39.576Z,20.90
2022-09-03T18:55:03.893Z,20.90
2022-09-03T18:57:56.303Z,20.90
2022-09-03T19:00:41.785Z,20.80
2022-09-03T19:04:04.075Z,20.80
2022-09-03T19:07:09.234Z,20.80
2022-09-03T19:10:00.039Z,20.80
2022-09-03T19:13:11.005Z,20.90
2022-09-03T19:16:25.193Z,20.90
2022-09-03T19:19:16.907Z,20.90
2022-09-03T19:22:11.573Z,20.90
2022-09-03T19:24:57.739Z,20.90
2022-09-03T19:28:00.259Z,20.80
2022-09-03T19:31:24.768Z,20.80
2022-09-03T19:34:58.829Z,20.70
2022-09-03T19:38:07.655Z,20.70
2022-09-03T19:41:14.796Z,20.70
2022-09-03T19:44:38.085Z,20.70
2022-09-03T19:47:23.893Z,20.60
2022-09-03T19:50:13.355Z,20.60
2022-09-03T19:53:12.433Z,20.60
2022-09-03T19:56:07.350Z,20.50
2022-09-03T19:58:54.737Z,20.40
2022-09-03T20:01:40.120Z,20.40
2022-09-03T20:04:33.052Z,20.30
2022-09-03T20:07:20.467Z,20.20
2022-09-03T20:10:06.321Z,20.30
2022-09-03T20:12:35.738Z,20.30
2022-09-03T20:15:05.205Z,20.30
2022-09-03T20:18:07.222Z,20.20
2022-09-03T20:21:00.975Z,20.10
2022-09-03T20:23:57.015Z,20.10
2022-09-03T20:26:46.467Z,20.00
2022-09-03T20:29:38.568Z,19.90
2022-09-03T20:32:11.719Z,19.90
2022-09-03T20:34:51.035Z,19.90
2022-09-03T20:37:42.757Z,19.90
2022-09-03T20:41:00.735Z,19.80
2022-09-03T20:43:42.561Z,19.70
2022-09-03T20:46:35.922Z,19.60
2022-09-03T20:49:09.020Z,19.60
2022-09-03T20:52:04.062Z,19.50
2022-09-03T20:54:38.733Z,19.50
2022-09-03T20:57:15.800Z,19.50
2022-09-03T21:00:10.764Z,19.50
2022-09-03T21:02:48.075Z,19.50
2022-09-03T21:05:33.270Z,19.50
2022-09-03T21:08:19.533Z,19.40
2022-09-03T21:11:06.841Z,19.40
2022-09-03T21:14:00.303Z,19.40
2022-09-03T21:17:04.993Z,19.50
2022-09-03T21:19:32.070Z,19.40
2022-09-03T21:22:29.045Z,19.40
2022-09-03T21:25:04.411Z,19.40
2022-09-03T21:28:05.750Z,19.40
2022-09-03T21:30:32.986Z,19.40
2022-09-03T21:33:20.685Z,19.30
2022-09-03T21:35:59.039Z,19.30
2022-09-03T21:38:32.328Z,19.30
2022-09-03T21:41:03.457Z,19.30
2022-09-03T21:43:33.991Z,19.10
2022-09-03T21:46:15.738Z,18.90
2022-09-03T21:48:48.258Z,18.70
2022-09-03T21:51:41.615Z,18.60
2022-09-03T21:54:15.303Z,18.60
2022-09-03T21:57:08.404Z,18.60
2022-09-03T21:59:57.380Z,18.70
2022-09-03T22:02:28.048Z,18.60
2022-09-03T22:04:56.248Z,18.50
2022-09-03T22:07:42.001Z,18.40
2022-09-03T22:10:27.955Z,18.30
2022-09-03T22:13:20.129Z,18.20
2022-09-03T22:15:50.303Z,18.10
2022-09-03T22:18:29.217Z,18.00
2022-09-03T22:21:03.163Z,18.10
2022-09-03T22:24:04.171Z,18.10
2022-09-03T22:26:56.443Z,18.00
2022-09-03T22:29:42.981Z,18.10
2022-09-03T22:32:25.320Z,18.10
2022-09-03T22:35:11.170Z,18.10
2022-09-03T22:37:52.103Z,18.10
2022-09-03T22:40:27.163Z,18.10
2022-09-03T22:43:00.141Z,18.10
2022-09-03T22:45:46.891Z,18.10
2022-09-03T22:48:47.824Z,17.90
2022-09-03T22:51:17.718Z,17.80
2022-09-03T22:54:00.538Z,17.60
2022-09-03T22:56:28.452Z,17.50
2022-09-03T22:59:05.716Z,17.40
2022-09-03T23:01:57.380Z,17.30
2022-09-03T23:04:28.913Z,17.30
2022-09-03T23:07:03.018Z,17.10
2022-09-03T23:09:37.578Z,17.20
2022-09-03T23:12:15.548Z,17.10
2022-09-03T23:14:53.902Z,17.10
2022-09-03T23:20:24.534Z,17.10
2022-09-03T23:23:20.241Z,17.20
2022-09-03T23:25:55.414Z,17.20
2022-09-03T23:28:33.757Z,17.10
2022-09-03T23:31:24.538Z,17.00
2022-09-03T23:33:55.488Z,17.00
2022-09-03T23:37:01.530Z,16.90
2022-09-03T23:39:50.658Z,16.90
2022-09-03T23:42:28.280Z,16.90
2022-09-03T23:45:05.056Z,16.90
2022-09-03T23:47:47.550Z,16.90
2022-09-03T23:50:40.587Z,16.90
2022-09-03T23:53:25.574Z,16.90
2022-09-03T23:56:08.823Z,16.90
2022-09-03T23:59:01.333Z,17.00
